createdAt,value
2023-04-23T14:32:18.409Z,1.80
2023-04-23T14:34:45.023Z,1.65
2023-04-23T14:37:12.421Z,1.73
2023-04-23T14:39:39.781Z,1.77
2023-04-23T14:42:06.624Z,1.70
2023-04-23T14:44:33.256Z,1.80
2023-04-23T14:46:59.972Z,1.77
2023-04-23T14:49:26.920Z,1.50
2023-04-23T14:51:58.073Z,1.80
2023-04-23T14:54:26.469Z,1.50
2023-04-23T14:56:53.368Z,2.65
2023-04-23T14:59:21.304Z,1.83
2023-04-23T15:01:48.513Z,1.50
2023-04-23T15:04:15.333Z,1.73
2023-04-23T15:06:41.968Z,1.42
2023-04-23T15:09:09.267Z,1.70
2023-04-23T15:11:38.591Z,1.85
2023-04-23T15:14:08.638Z,1.63
2023-04-23T15:16:47.594Z,2.08
2023-04-23T15:19:17.904Z,1.85
2023-04-23T15:21:45.492Z,1.63
2023-04-23T15:24:13.399Z,1.60
2023-04-23T15:26:40.205Z,1.70
2023-04-23T15:29:10.309Z,2.00
2023-04-23T15:31:38.414Z,3.00
2023-04-23T15:34:07.366Z,2.92
2023-04-23T15:36:37.448Z,4.97
2023-04-23T15:39:04.553Z,9.35
2023-04-23T15:41:31.233Z,3.45
2023-04-23T15:43:57.941Z,3.30
2023-04-23T15:46:24.501Z,2.83
2023-04-23T15:48:51.094Z,2.72
2023-04-23T15:51:17.934Z,2.45
2023-04-23T15:53:44.607Z,2.10
2023-04-23T15:56:11.541Z,3.20
2023-04-23T15:58:38.229Z,2.53
2023-04-23T16:01:07.307Z,2.60
2023-04-23T16:03:34.410Z,3.03
2023-04-23T16:06:05.175Z,3.22
2023-04-23T16:08:32.714Z,3.10
2023-04-23T16:10:59.473Z,14.23
2023-04-23T16:13:29.460Z,10.45
2023-04-23T16:15:56.246Z,7.97
2023-04-23T16:18:22.905Z,4.55
2023-04-23T16:20:50.433Z,2.63
2023-04-23T16:23:17.051Z,4.80
2023-04-23T16:25:44.480Z,4.30
2023-04-23T16:28:13.320Z,4.55
2023-04-23T16:30:40.061Z,4.07
2023-04-23T16:33:10.700Z,3.70
2023-04-23T16:35:37.638Z,4.20
2023-04-23T16:38:05.323Z,3.45
2023-04-23T16:40:31.915Z,4.15
2023-04-23T16:42:59.653Z,3.65
2023-04-23T16:45:26.284Z,3.50
2023-04-23T16:47:52.992Z,2.60
2023-04-23T16:50:21.342Z,3.10
2023-04-23T16:52:47.974Z,2.40
2023-04-23T16:55:14.693Z,2.90
2023-04-23T16:57:41.660Z,2.88
2023-04-23T17:00:11.401Z,3.67
2023-04-23T17:02:38.525Z,3.83
2023-04-23T17:05:08.753Z,3.20
2023-04-23T17:07:46.625Z,2.95
2023-04-23T17:10:15.524Z,6.70
2023-04-23T17:12:42.109Z,11.70
2023-04-23T17:15:16.078Z,8.80
2023-04-23T17:17:42.750Z,6.45
2023-04-23T17:20:12.619Z,5.05
2023-04-23T17:22:39.579Z,14.35
2023-04-23T17:25:06.813Z,36.00
2023-04-23T17:27:33.407Z,45.50
2023-04-23T17:30:01.531Z,62.03
2023-04-23T17:32:31.655Z,103.97
2023-04-23T17:35:09.341Z,124.30
2023-04-23T17:37:36.976Z,121.38
2023-04-23T17:40:05.945Z,119.75
2023-04-23T17:42:33.288Z,114.70
2023-04-23T17:45:00.772Z,105.32
2023-04-23T17:47:27.818Z,103.57
2023-04-23T17:49:54.613Z,100.93
2023-04-23T17:52:21.779Z,105.13
2023-04-23T17:54:48.381Z,104.75
2023-04-23T17:57:14.971Z,118.20
2023-04-23T17:59:41.932Z,119.80
2023-04-23T18:02:09.485Z,119.80
2023-04-23T18:04:36.919Z,113.47
2023-04-23T18:07:03.704Z,119.65
2023-04-23T18:09:30.339Z,66.30
2023-04-23T18:11:57.387Z,119.93
2023-04-23T18:14:24.032Z,122.63
2023-04-23T18:16:51.028Z,127.32
2023-04-23T18:19:17.760Z,119.28
2023-04-23T18:21:46.708Z,107.32
2023-04-23T18:24:13.459Z,96.57
2023-04-23T18:26:40.055Z,94.55
2023-04-23T18:29:06.758Z,88.68
2023-04-23T18:31:34.065Z,80.55
2023-04-23T18:34:03.900Z,69.80
2023-04-23T18:36:34.613Z,56.10
2023-04-23T18:39:01.263Z,44.22
2023-04-23T18:41:31.046Z,36.80
2023-04-23T18:44:01.617Z,33.38
2023-04-23T18:46:30.865Z,32.95
2023-04-23T18:49:12.448Z,38.83
2023-04-23T18:51:45.770Z,40.20
2023-04-23T18:54:17.344Z,44.20
2023-04-23T18:56:45.430Z,49.40
2023-04-23T18:59:12.692Z,50.28
2023-04-23T19:01:40.301Z,46.55
2023-04-23T19:04:07.198Z,62.25
2023-04-23T19:06:34.644Z,58.85
2023-04-23T19:09:02.405Z,59.03
2023-04-23T19:11:30.315Z,55.38
2023-04-23T19:17:03.538Z,55.92
2023-04-23T19:19:32.079Z,60.47
2023-04-23T19:21:58.917Z,54.65
2023-04-23T19:24:26.698Z,45.15
2023-04-23T19:26:53.289Z,41.28
2023-04-23T19:29:19.923Z,31.33
2023-04-23T19:31:47.002Z,30.50
2023-04-23T19:34:13.798Z,29.00
2023-04-23T19:36:40.374Z,31.45
2023-04-23T19:39:08.650Z,32.15
2023-04-23T19:41:35.269Z,37.83
2023-04-23T19:44:02.153Z,37.22
2023-04-23T19:46:31.959Z,44.15
2023-04-23T19:49:01.188Z,38.85
2023-04-23T19:51:32.980Z,32.08
2023-04-23T19:53:59.753Z,28.77
2023-04-23T19:56:26.462Z,29.30
2023-04-23T19:59:09.157Z,26.00
2023-04-23T20:01:42.413Z,23.35
2023-04-23T20:04:09.497Z,19.52
2023-04-23T20:06:36.333Z,16.35
2023-04-23T20:09:19.944Z,16.13
2023-04-23T20:11:47.473Z,16.15
2023-04-23T20:14:14.958Z,15.80
2023-04-23T20:16:41.784Z,14.38
2023-04-23T20:19:11.600Z,14.85
2023-04-23T20:21:39.380Z,16.35
2023-04-23T20:24:11.045Z,13.68
2023-04-23T20:26:39.811Z,14.38
2023-04-23T20:29:06.625Z,16.05
2023-04-23T20:31:36.084Z,15.13
2023-04-23T20:34:02.870Z,15.25
2023-04-23T20:36:30.481Z,15.10
2023-04-23T20:39:03.363Z,16.10
2023-04-23T20:41:37.061Z,15.13
2023-04-23T20:44:06.626Z,13.73
2023-04-23T20:46:33.304Z,13.98
2023-04-23T20:49:00.962Z,14.15
2023-04-23T20:51:33.043Z,12.75
2023-04-23T20:53:59.976Z,12.52
2023-04-23T20:56:27.900Z,12.55
2023-04-23T20:58:57.676Z,12.43
2023-04-23T21:01:25.676Z,12.57
2023-04-23T21:03:53.623Z,13.02
2023-04-23T21:06:23.875Z,12.48
2023-04-23T21:08:50.524Z,12.68
2023-04-23T21:11:18.844Z,13.38
2023-04-23T21:13:47.142Z,13.70
2023-04-23T21:16:13.951Z,15.70
2023-04-23T21:18:41.079Z,16.67
2023-04-23T21:21:08.877Z,16.73
2023-04-23T21:23:35.966Z,17.67
2023-04-23T21:26:03.332Z,19.42
2023-04-23T21:28:31.537Z,20.27
2023-04-23T21:31:09.438Z,20.13
2023-04-23T21:33:36.143Z,21.27
2023-04-23T21:36:04.558Z,25.52
2023-04-23T21:38:31.166Z,29.85
2023-04-23T21:40:58.175Z,31.30
2023-04-23T21:43:24.793Z,31.75
2023-04-23T21:45:51.805Z,36.03
2023-04-23T21:48:18.464Z,36.25
2023-04-23T21:50:45.073Z,38.15
2023-04-23T21:53:13.182Z,35.22
2023-04-23T21:55:39.844Z,31.60
2023-04-23T21:58:17.047Z,33.88
2023-04-23T22:00:45.403Z,31.08
2023-04-23T22:03:12.612Z,29.40
2023-04-23T22:05:43.129Z,24.90
2023-04-23T22:08:10.580Z,24.38
2023-04-23T22:10:42.936Z,24.90
2023-04-23T22:13:10.189Z,26.13
2023-04-23T22:15:37.048Z,26.67
2023-04-23T22:18:03.879Z,25.10
2023-04-23T22:20:30.723Z,23.20
2023-04-23T22:22:57.395Z,23.42
2023-04-23T22:25:24.200Z,22.52
2023-04-23T22:27:50.920Z,22.48
2023-04-23T22:30:18.267Z,20.98
2023-04-23T22:32:45.972Z,21.77
2023-04-23T22:35:12.799Z,20.52
2023-04-23T22:37:41.215Z,18.35
2023-04-23T22:40:09.820Z,14.50
2023-04-23T22:42:37.468Z,14.85
2023-04-23T22:45:04.920Z,14.48
2023-04-23T22:47:31.949Z,13.27
2023-04-23T22:49:58.943Z,13.05
2023-04-23T22:52:26.158Z,13.00
2023-04-23T22:54:54.949Z,13.40
2023-04-23T22:57:21.644Z,12.43
2023-04-23T22:59:49.274Z,12.50
2023-04-23T23:02:16.268Z,12.80
2023-04-23T23:04:43.057Z,12.93
2023-04-23T23:07:10.305Z,12.43
2023-04-23T23:09:36.865Z,12.93
2023-04-23T23:12:04.902Z,12.57
2023-04-23T23:14:33.351Z,12.57
2023-04-23T23:19:42.625Z,11.50
2023-04-23T23:22:09.361Z,10.90
2023-04-23T23:24:35.944Z,11.07
2023-04-23T23:27:02.670Z,10.85
2023-04-23T23:29:29.245Z,10.57
2023-04-23T23:31:57.553Z,10.68
2023-04-23T23:34:24.376Z,9.93
2023-04-23T23:36:51.846Z,10.88
2023-04-23T23:39:21.312Z,9.68
2023-04-23T23:41:47.979Z,9.95
2023-04-23T23:44:14.717Z,9.38
2023-04-23T23:46:41.630Z,10.52
2023-04-23T23:49:09.410Z,9.45
2023-04-23T23:51:36.037Z,9.80
2023-04-23T23:54:02.609Z,9.60
2023-04-23T23:56:29.237Z,8.90
2023-04-23T23:58:55.816Z,8.95
